sensor_id;sensor_type;location;lat;lon;timestamp;temperature;humidity
5061;DHT22;2549;52.128;21.068;2022-07-22T00:02:22;24.90;92.40
5061;DHT22;2549;52.128;21.068;2022-07-22T00:04:49;24.90;92.40
5061;DHT22;2549;52.128;21.068;2022-07-22T00:07:17;24.90;92.30
5061;DHT22;2549;52.128;21.068;2022-07-22T00:09:44;24.90;92.20
5061;DHT22;2549;52.128;21.068;2022-07-22T00:12:11;24.90;92.10
5061;DHT22;2549;52.128;21.068;2022-07-22T00:14:39;24.90;92.00
5061;DHT22;2549;52.128;21.068;2022-07-22T00:17:06;24.90;91.90
5061;DHT22;2549;52.128;21.068;2022-07-22T00:19:33;24.90;91.80
5061;DHT22;2549;52.128;21.068;2022-07-22T00:22:00;24.90;91.60
5061;DHT22;2549;52.128;21.068;2022-07-22T00:24:27;25.00;91.60
5061;DHT22;2549;52.128;21.068;2022-07-22T00:26:54;25.00;91.60
5061;DHT22;2549;52.128;21.068;2022-07-22T00:29:21;25.00;91.60
5061;DHT22;2549;52.128;21.068;2022-07-22T00:31:48;25.00;91.60
5061;DHT22;2549;52.128;21.068;2022-07-22T00:34:15;25.00;91.50
5061;DHT22;2549;52.128;21.068;2022-07-22T00:36:42;24.90;91.50
5061;DHT22;2549;52.128;21.068;2022-07-22T00:39:09;25.00;91.50
5061;DHT22;2549;52.128;21.068;2022-07-22T00:41:35;24.90;91.50
5061;DHT22;2549;52.128;21.068;2022-07-22T00:44:08;24.90;91.60
5061;DHT22;2549;52.128;21.068;2022-07-22T00:46:37;24.90;91.60
5061;DHT22;2549;52.128;21.068;2022-07-22T00:49:06;24.90;91.60
5061;DHT22;2549;52.128;21.068;2022-07-22T00:51:34;24.90;91.60
5061;DHT22;2549;52.128;21.068;2022-07-22T00:54:02;24.90;91.70
5061;DHT22;2549;52.128;21.068;2022-07-22T00:56:30;24.90;91.60
5061;DHT22;2549;52.128;21.068;2022-07-22T00:59:00;24.90;91.60
5061;DHT22;2549;52.128;21.068;2022-07-22T01:01:27;24.90;91.60
5061;DHT22;2549;52.128;21.068;2022-07-22T01:03:54;24.90;91.60
5061;DHT22;2549;52.128;21.068;2022-07-22T01:06:28;24.90;91.70
5061;DHT22;2549;52.128;21.068;2022-07-22T01:08:56;24.80;91.70
5061;DHT22;2549;52.128;21.068;2022-07-22T01:11:24;24.80;91.80
5061;DHT22;2549;52.128;21.068;2022-07-22T01:13:52;24.80;91.80
5061;DHT22;2549;52.128;21.068;2022-07-22T01:16:20;24.80;91.80
5061;DHT22;2549;52.128;21.068;2022-07-22T01:18:47;24.80;91.80
5061;DHT22;2549;52.128;21.068;2022-07-22T01:21:14;24.80;91.90
5061;DHT22;2549;52.128;21.068;2022-07-22T01:23:42;24.70;91.90
5061;DHT22;2549;52.128;21.068;2022-07-22T01:26:09;24.70;92.10
5061;DHT22;2549;52.128;21.068;2022-07-22T01:28:36;24.70;92.20
5061;DHT22;2549;52.128;21.068;2022-07-22T01:31:03;24.70;92.40
5061;DHT22;2549;52.128;21.068;2022-07-22T01:33:31;24.60;92.40
5061;DHT22;2549;52.128;21.068;2022-07-22T01:35:58;24.60;92.50
5061;DHT22;2549;52.128;21.068;2022-07-22T01:38:25;24.60;92.70
5061;DHT22;2549;52.128;21.068;2022-07-22T01:40:52;24.50;92.70
5061;DHT22;2549;52.128;21.068;2022-07-22T01:43:19;24.40;92.80
5061;DHT22;2549;52.128;21.068;2022-07-22T01:49:37;24.40;93.00
5061;DHT22;2549;52.128;21.068;2022-07-22T01:52:04;24.30;93.00
5061;DHT22;2549;52.128;21.068;2022-07-22T01:54:32;24.20;93.10
5061;DHT22;2549;52.128;21.068;2022-07-22T01:57:00;24.20;93.20
5061;DHT22;2549;52.128;21.068;2022-07-22T01:59:27;24.20;93.30
5061;DHT22;2549;52.128;21.068;2022-07-22T02:01:54;24.20;93.30
5061;DHT22;2549;52.128;21.068;2022-07-22T02:04:21;24.10;93.30
5061;DHT22;2549;52.128;21.068;2022-07-22T02:06:52;24.10;93.40
5061;DHT22;2549;52.128;21.068;2022-07-22T02:09:19;24.10;93.60
5061;DHT22;2549;52.128;21.068;2022-07-22T02:11:46;24.10;93.60
5061;DHT22;2549;52.128;21.068;2022-07-22T02:14:13;24.10;93.60
5061;DHT22;2549;52.128;21.068;2022-07-22T02:16:40;24.10;93.70
5061;DHT22;2549;52.128;21.068;2022-07-22T02:19:08;24.00;93.70
5061;DHT22;2549;52.128;21.068;2022-07-22T02:21:35;24.00;93.70
5061;DHT22;2549;52.128;21.068;2022-07-22T02:24:02;23.90;93.70
5061;DHT22;2549;52.128;21.068;2022-07-22T02:26:29;23.90;93.70
5061;DHT22;2549;52.128;21.068;2022-07-22T02:28:56;23.90;93.90
5061;DHT22;2549;52.128;21.068;2022-07-22T02:31:24;23.80;93.90
5061;DHT22;2549;52.128;21.068;2022-07-22T02:33:51;23.80;94.00
5061;DHT22;2549;52.128;21.068;2022-07-22T02:36:18;23.80;94.00
5061;DHT22;2549;52.128;21.068;2022-07-22T02:38:45;23.80;94.00
5061;DHT22;2549;52.128;21.068;2022-07-22T02:41:12;23.80;94.00
5061;DHT22;2549;52.128;21.068;2022-07-22T02:43:39;23.70;94.00
5061;DHT22;2549;52.128;21.068;2022-07-22T02:46:06;23.70;94.10
5061;DHT22;2549;52.128;21.068;2022-07-22T02:48:33;23.70;94.10
5061;DHT22;2549;52.128;21.068;2022-07-22T02:51:00;23.70;94.20
5061;DHT22;2549;52.128;21.068;2022-07-22T02:53:27;23.60;94.10
5061;DHT22;2549;52.128;21.068;2022-07-22T02:55:54;23.60;94.10
5061;DHT22;2549;52.128;21.068;2022-07-22T02:58:21;23.50;94.00
5061;DHT22;2549;52.128;21.068;2022-07-22T03:00:48;23.50;93.90
5061;DHT22;2549;52.128;21.068;2022-07-22T03:03:15;23.60;93.90
5061;DHT22;2549;52.128;21.068;2022-07-22T03:05:42;23.60;94.00
5061;DHT22;2549;52.128;21.068;2022-07-22T03:08:09;23.70;94.00
5061;DHT22;2549;52.128;21.068;2022-07-22T03:10:38;23.60;93.70
5061;DHT22;2549;52.128;21.068;2022-07-22T03:13:04;23.60;93.70
5061;DHT22;2549;52.128;21.068;2022-07-22T03:15:31;23.60;93.80
5061;DHT22;2549;52.128;21.068;2022-07-22T03:17:58;23.60;93.90
5061;DHT22;2549;52.128;21.068;2022-07-22T03:20:25;23.60;94.00
5061;DHT22;2549;52.128;21.068;2022-07-22T03:22:53;23.60;94.00
5061;DHT22;2549;52.128;21.068;2022-07-22T03:25:20;23.60;94.10
5061;DHT22;2549;52.128;21.068;2022-07-22T03:27:47;23.60;94.10
5061;DHT22;2549;52.128;21.068;2022-07-22T03:30:13;23.60;94.20
5061;DHT22;2549;52.128;21.068;2022-07-22T03:32:40;23.50;94.20
5061;DHT22;2549;52.128;21.068;2022-07-22T03:35:13;23.50;94.30
5061;DHT22;2549;52.128;21.068;2022-07-22T03:37:40;23.50;94.30
5061;DHT22;2549;52.128;21.068;2022-07-22T03:40:08;23.60;94.40
5061;DHT22;2549;52.128;21.068;2022-07-22T03:42:35;23.50;94.40
5061;DHT22;2549;52.128;21.068;2022-07-22T03:45:02;23.50;94.50
5061;DHT22;2549;52.128;21.068;2022-07-22T03:47:29;23.60;94.60
5061;DHT22;2549;52.128;21.068;2022-07-22T03:49:56;23.50;94.60
5061;DHT22;2549;52.128;21.068;2022-07-22T03:52:25;23.50;94.70
5061;DHT22;2549;52.128;21.068;2022-07-22T03:54:52;23.60;94.80
5061;DHT22;2549;52.128;21.068;2022-07-22T03:57:19;23.50;94.80
5061;DHT22;2549;52.128;21.068;2022-07-22T03:59:47;23.50;94.90
5061;DHT22;2549;52.128;21.068;2022-07-22T04:02:14;23.50;95.00
5061;DHT22;2549;52.128;21.068;2022-07-22T04:04:41;23.50;95.10
5061;DHT22;2549;52.128;21.068;2022-07-22T04:07:08;23.50;95.20
5061;DHT22;2549;52.128;21.068;2022-07-22T04:09:35;23.50;95.30
5061;DHT22;2549;52.128;21.068;2022-07-22T04:12:02;23.60;95.40
5061;DHT22;2549;52.128;21.068;2022-07-22T04:14:29;23.60;95.40
5061;DHT22;2549;52.128;21.068;2022-07-22T04:16:56;23.50;95.60
5061;DHT22;2549;52.128;21.068;2022-07-22T04:19:23;23.50;95.80
5061;DHT22;2549;52.128;21.068;2022-07-22T04:21:50;23.50;95.90
5061;DHT22;2549;52.128;21.068;2022-07-22T04:24:17;23.50;95.90
5061;DHT22;2549;52.128;21.068;2022-07-22T04:26:44;23.50;96.00
5061;DHT22;2549;52.128;21.068;2022-07-22T04:29:10;23.60;96.10
5061;DHT22;2549;52.128;21.068;2022-07-22T04:31:37;23.60;96.20
5061;DHT22;2549;52.128;21.068;2022-07-22T04:34:04;23.70;96.30
5061;DHT22;2549;52.128;21.068;2022-07-22T04:36:31;23.70;96.30
5061;DHT22;2549;52.128;21.068;2022-07-22T04:38:58;23.70;96.50
5061;DHT22;2549;52.128;21.068;2022-07-22T04:41:27;23.80;96.60
5061;DHT22;2549;52.128;21.068;2022-07-22T04:43:54;23.80;96.60
5061;DHT22;2549;52.128;21.068;2022-07-22T04:46:21;23.90;96.80
5061;DHT22;2549;52.128;21.068;2022-07-22T04:48:48;23.90;96.90
5061;DHT22;2549;52.128;21.068;2022-07-22T04:51:15;24.00;97.10
5061;DHT22;2549;52.128;21.068;2022-07-22T04:53:42;24.00;97.20
5061;DHT22;2549;52.128;21.068;2022-07-22T04:56:14;24.10;97.30
5061;DHT22;2549;52.128;21.068;2022-07-22T04:58:42;24.10;97.40
5061;DHT22;2549;52.128;21.068;2022-07-22T05:01:09;24.20;97.50
5061;DHT22;2549;52.128;21.068;2022-07-22T05:03:40;24.20;97.50
5061;DHT22;2549;52.128;21.068;2022-07-22T05:06:07;24.30;97.50
5061;DHT22;2549;52.128;21.068;2022-07-22T05:08:34;24.30;97.50
5061;DHT22;2549;52.128;21.068;2022-07-22T05:11:02;24.40;97.70
5061;DHT22;2549;52.128;21.068;2022-07-22T05:13:29;24.40;97.80
5061;DHT22;2549;52.128;21.068;2022-07-22T05:15:56;24.50;97.80
5061;DHT22;2549;52.128;21.068;2022-07-22T05:18:23;24.50;98.10
5061;DHT22;2549;52.128;21.068;2022-07-22T05:20:49;24.50;98.40
5061;DHT22;2549;52.128;21.068;2022-07-22T05:23:16;24.60;98.10
5061;DHT22;2549;52.128;21.068;2022-07-22T05:25:43;24.60;98.00
5061;DHT22;2549;52.128;21.068;2022-07-22T05:28:10;24.70;98.00
5061;DHT22;2549;52.128;21.068;2022-07-22T05:30:37;24.70;98.00
5061;DHT22;2549;52.128;21.068;2022-07-22T05:33:04;24.80;98.00
5061;DHT22;2549;52.128;21.068;2022-07-22T05:35:31;24.80;98.10
5061;DHT22;2549;52.128;21.068;2022-07-22T05:37:58;24.80;98.10
5061;DHT22;2549;52.128;21.068;2022-07-22T05:40:25;24.80;98.10
5061;DHT22;2549;52.128;21.068;2022-07-22T05:42:52;24.90;98.20
5061;DHT22;2549;52.128;21.068;2022-07-22T05:45:19;24.90;98.20
5061;DHT22;2549;52.128;21.068;2022-07-22T05:47:45;24.90;98.20
5061;DHT22;2549;52.128;21.068;2022-07-22T05:50:12;25.00;98.20
5061;DHT22;2549;52.128;21.068;2022-07-22T05:52:39;25.00;98.10
5061;DHT22;2549;52.128;21.068;2022-07-22T05:55:07;25.00;97.70
5061;DHT22;2549;52.128;21.068;2022-07-22T05:57:34;25.10;97.60
5061;DHT22;2549;52.128;21.068;2022-07-22T06:00:03;25.10;97.30
5061;DHT22;2549;52.128;21.068;2022-07-22T06:02:30;25.10;97.20
5061;DHT22;2549;52.128;21.068;2022-07-22T06:04:57;25.10;96.70
5061;DHT22;2549;52.128;21.068;2022-07-22T06:07:26;25.20;95.90
5061;DHT22;2549;52.128;21.068;2022-07-22T06:09:53;25.20;95.90
5061;DHT22;2549;52.128;21.068;2022-07-22T06:12:20;25.30;95.90
5061;DHT22;2549;52.128;21.068;2022-07-22T06:14:47;25.30;95.70
5061;DHT22;2549;52.128;21.068;2022-07-22T06:17:14;25.30;95.50
5061;DHT22;2549;52.128;21.068;2022-07-22T06:19:41;25.40;95.60
5061;DHT22;2549;52.128;21.068;2022-07-22T06:22:08;25.40;95.60
5061;DHT22;2549;52.128;21.068;2022-07-22T06:24:36;25.40;95.50
5061;DHT22;2549;52.128;21.068;2022-07-22T06:27:03;25.50;95.50
5061;DHT22;2549;52.128;21.068;2022-07-22T06:29:30;25.50;95.20
5061;DHT22;2549;52.128;21.068;2022-07-22T06:31:57;25.50;95.30
5061;DHT22;2549;52.128;21.068;2022-07-22T06:34:24;25.50;95.30
5061;DHT22;2549;52.128;21.068;2022-07-22T06:36:51;25.50;95.20
5061;DHT22;2549;52.128;21.068;2022-07-22T06:39:18;25.50;95.00
5061;DHT22;2549;52.128;21.068;2022-07-22T06:41:45;25.60;95.00
5061;DHT22;2549;52.128;21.068;2022-07-22T06:44:12;25.60;95.00
5061;DHT22;2549;52.128;21.068;2022-07-22T06:46:39;25.70;95.10
5061;DHT22;2549;52.128;21.068;2022-07-22T06:49:07;25.70;95.20
5061;DHT22;2549;52.128;21.068;2022-07-22T06:51:38;25.70;95.60
5061;DHT22;2549;52.128;21.068;2022-07-22T06:54:05;25.80;95.70
5061;DHT22;2549;52.128;21.068;2022-07-22T06:56:32;25.80;95.50
5061;DHT22;2549;52.128;21.068;2022-07-22T06:58:59;25.80;95.30
5061;DHT22;2549;52.128;21.068;2022-07-22T07:01:26;25.90;95.30
5061;DHT22;2549;52.128;21.068;2022-07-22T07:03:53;25.90;95.20
5061;DHT22;2549;52.128;21.068;2022-07-22T07:06:20;25.90;95.40
5061;DHT22;2549;52.128;21.068;2022-07-22T07:08:47;26.00;95.10
5061;DHT22;2549;52.128;21.068;2022-07-22T07:11:14;26.00;94.90
5061;DHT22;2549;52.128;21.068;2022-07-22T07:13:41;26.00;94.50
5061;DHT22;2549;52.128;21.068;2022-07-22T07:16:08;26.00;94.50
5061;DHT22;2549;52.128;21.068;2022-07-22T07:18:35;26.00;93.90
5061;DHT22;2549;52.128;21.068;2022-07-22T07:21:04;26.00;93.40
5061;DHT22;2549;52.128;21.068;2022-07-22T07:23:34;26.10;93.10
5061;DHT22;2549;52.128;21.068;2022-07-22T07:26:01;26.10;93.20
5061;DHT22;2549;52.128;21.068;2022-07-22T07:28:27;26.20;93.30
5061;DHT22;2549;52.128;21.068;2022-07-22T07:30:55;26.20;93.20
5061;DHT22;2549;52.128;21.068;2022-07-22T07:33:22;26.30;93.60
5061;DHT22;2549;52.128;21.068;2022-07-22T07:35:49;26.30;93.30
5061;DHT22;2549;52.128;21.068;2022-07-22T07:38:16;26.40;93.30
5061;DHT22;2549;52.128;21.068;2022-07-22T07:40:43;26.40;93.30
5061;DHT22;2549;52.128;21.068;2022-07-22T07:43:10;26.40;93.70
5061;DHT22;2549;52.128;21.068;2022-07-22T07:45:37;26.40;93.50
5061;DHT22;2549;52.128;21.068;2022-07-22T07:48:05;26.40;93.40
5061;DHT22;2549;52.128;21.068;2022-07-22T07:50:32;26.50;93.50
5061;DHT22;2549;52.128;21.068;2022-07-22T07:52:59;26.50;93.40
5061;DHT22;2549;52.128;21.068;2022-07-22T07:55:27;26.60;93.10
5061;DHT22;2549;52.128;21.068;2022-07-22T07:57:55;26.60;93.30
5061;DHT22;2549;52.128;21.068;2022-07-22T08:00:24;26.70;93.30
5061;DHT22;2549;52.128;21.068;2022-07-22T08:02:55;26.80;92.90
5061;DHT22;2549;52.128;21.068;2022-07-22T08:05:23;26.80;92.30
5061;DHT22;2549;52.128;21.068;2022-07-22T08:07:50;26.80;92.10
5061;DHT22;2549;52.128;21.068;2022-07-22T08:10:18;26.80;91.40
5061;DHT22;2549;52.128;21.068;2022-07-22T08:13:06;26.80;90.70
5061;DHT22;2549;52.128;21.068;2022-07-22T08:15:35;26.90;90.10
5061;DHT22;2549;52.128;21.068;2022-07-22T08:18:03;27.00;90.10
5061;DHT22;2549;52.128;21.068;2022-07-22T08:20:31;27.00;88.60
5061;DHT22;2549;52.128;21.068;2022-07-22T08:22:58;27.10;88.30
5061;DHT22;2549;52.128;21.068;2022-07-22T08:25:26;27.20;87.10
5061;DHT22;2549;52.128;21.068;2022-07-22T08:27:53;27.30;87.50
5061;DHT22;2549;52.128;21.068;2022-07-22T08:30:20;27.40;87.80
5061;DHT22;2549;52.128;21.068;2022-07-22T08:32:49;27.50;88.10
5061;DHT22;2549;52.128;21.068;2022-07-22T08:35:17;27.50;88.20
5061;DHT22;2549;52.128;21.068;2022-07-22T08:37:46;27.50;89.20
5061;DHT22;2549;52.128;21.068;2022-07-22T08:40:15;27.50;89.70
5061;DHT22;2549;52.128;21.068;2022-07-22T08:42:45;27.50;89.20
5061;DHT22;2549;52.128;21.068;2022-07-22T08:45:12;27.60;89.30
5061;DHT22;2549;52.128;21.068;2022-07-22T08:47:48;27.60;89.30
5061;DHT22;2549;52.128;21.068;2022-07-22T08:50:16;27.60;88.90
5061;DHT22;2549;52.128;21.068;2022-07-22T08:52:43;27.60;88.60
5061;DHT22;2549;52.128;21.068;2022-07-22T08:55:10;27.70;89.40
5061;DHT22;2549;52.128;21.068;2022-07-22T08:57:43;27.70;88.20
5061;DHT22;2549;52.128;21.068;2022-07-22T09:00:12;27.70;87.80
5061;DHT22;2549;52.128;21.068;2022-07-22T09:02:41;27.70;88.20
5061;DHT22;2549;52.128;21.068;2022-07-22T09:05:11;27.80;87.70
5061;DHT22;2549;52.128;21.068;2022-07-22T09:08:00;27.80;87.80
5061;DHT22;2549;52.128;21.068;2022-07-22T09:10:35;27.90;87.70
5061;DHT22;2549;52.128;21.068;2022-07-22T09:13:04;27.90;87.60
5061;DHT22;2549;52.128;21.068;2022-07-22T09:15:34;28.00;87.60
5061;DHT22;2549;52.128;21.068;2022-07-22T09:18:04;28.10;88.10
5061;DHT22;2549;52.128;21.068;2022-07-22T09:20:33;28.20;89.20
5061;DHT22;2549;52.128;21.068;2022-07-22T09:23:01;28.20;89.10
5061;DHT22;2549;52.128;21.068;2022-07-22T09:25:34;28.20;89.10
5061;DHT22;2549;52.128;21.068;2022-07-22T09:31:02;28.20;90.00
5061;DHT22;2549;52.128;21.068;2022-07-22T09:33:29;28.30;90.30
5061;DHT22;2549;52.128;21.068;2022-07-22T09:36:03;28.40;90.50
5061;DHT22;2549;52.128;21.068;2022-07-22T09:38:30;28.40;90.40
5061;DHT22;2549;52.128;21.068;2022-07-22T09:40:59;28.40;90.40
5061;DHT22;2549;52.128;21.068;2022-07-22T09:43:28;28.40;90.40
5061;DHT22;2549;52.128;21.068;2022-07-22T09:46:00;28.40;90.70
5061;DHT22;2549;52.128;21.068;2022-07-22T09:48:27;28.40;90.80
5061;DHT22;2549;52.128;21.068;2022-07-22T09:50:55;28.50;90.70
5061;DHT22;2549;52.128;21.068;2022-07-22T09:53:28;28.60;90.70
5061;DHT22;2549;52.128;21.068;2022-07-22T09:56:00;28.60;90.60
5061;DHT22;2549;52.128;21.068;2022-07-22T09:58:28;28.60;90.60
5061;DHT22;2549;52.128;21.068;2022-07-22T10:00:58;28.60;90.70
5061;DHT22;2549;52.128;21.068;2022-07-22T10:03:34;28.70;90.60
5061;DHT22;2549;52.128;21.068;2022-07-22T10:06:05;28.70;90.60
5061;DHT22;2549;52.128;21.068;2022-07-22T10:08:33;28.70;90.20
5061;DHT22;2549;52.128;21.068;2022-07-22T10:11:03;28.70;90.20
5061;DHT22;2549;52.128;21.068;2022-07-22T10:13:30;28.70;90.00
5061;DHT22;2549;52.128;21.068;2022-07-22T10:15:58;28.80;89.90
5061;DHT22;2549;52.128;21.068;2022-07-22T10:18:26;28.90;89.80
5061;DHT22;2549;52.128;21.068;2022-07-22T10:21:07;28.90;89.70
5061;DHT22;2549;52.128;21.068;2022-07-22T10:23:35;28.90;90.00
5061;DHT22;2549;52.128;21.068;2022-07-22T10:26:03;28.90;89.90
5061;DHT22;2549;52.128;21.068;2022-07-22T10:28:33;28.90;89.70
5061;DHT22;2549;52.128;21.068;2022-07-22T10:31:22;28.90;90.00
5061;DHT22;2549;52.128;21.068;2022-07-22T10:33:56;28.90;90.00
5061;DHT22;2549;52.128;21.068;2022-07-22T10:41:34;29.00;91.00
5061;DHT22;2549;52.128;21.068;2022-07-22T10:44:01;29.00;90.90
5061;DHT22;2549;52.128;21.068;2022-07-22T10:49:19;29.00;90.70
5061;DHT22;2549;52.128;21.068;2022-07-22T10:52:12;29.00;90.70
5061;DHT22;2549;52.128;21.068;2022-07-22T10:55:19;29.00;89.60
5061;DHT22;2549;52.128;21.068;2022-07-22T10:57:47;29.10;89.60
5061;DHT22;2549;52.128;21.068;2022-07-22T11:00:15;29.10;89.50
5061;DHT22;2549;52.128;21.068;2022-07-22T11:02:42;29.20;90.00
5061;DHT22;2549;52.128;21.068;2022-07-22T11:05:09;29.30;89.80
5061;DHT22;2549;52.128;21.068;2022-07-22T11:07:44;29.30;88.60
5061;DHT22;2549;52.128;21.068;2022-07-22T11:10:14;29.30;86.90
5061;DHT22;2549;52.128;21.068;2022-07-22T11:12:48;29.30;87.10
5061;DHT22;2549;52.128;21.068;2022-07-22T11:15:16;29.50;87.50
5061;DHT22;2549;52.128;21.068;2022-07-22T11:17:44;29.50;87.00
5061;DHT22;2549;52.128;21.068;2022-07-22T11:20:12;29.50;86.50
5061;DHT22;2549;52.128;21.068;2022-07-22T11:22:46;29.60;87.00
5061;DHT22;2549;52.128;21.068;2022-07-22T11:25:14;29.50;87.20
5061;DHT22;2549;52.128;21.068;2022-07-22T11:27:51;29.50;86.70
5061;DHT22;2549;52.128;21.068;2022-07-22T11:30:18;29.50;85.90
5061;DHT22;2549;52.128;21.068;2022-07-22T11:32:45;29.60;85.70
5061;DHT22;2549;52.128;21.068;2022-07-22T11:35:13;29.60;85.50
5061;DHT22;2549;52.128;21.068;2022-07-22T11:37:40;29.70;84.70
5061;DHT22;2549;52.128;21.068;2022-07-22T11:40:08;29.70;85.10
5061;DHT22;2549;52.128;21.068;2022-07-22T11:42:36;29.80;85.20
5061;DHT22;2549;52.128;21.068;2022-07-22T11:45:04;29.80;86.00
5061;DHT22;2549;52.128;21.068;2022-07-22T11:47:31;29.80;86.50
5061;DHT22;2549;52.128;21.068;2022-07-22T11:49:58;29.90;87.00
5061;DHT22;2549;52.128;21.068;2022-07-22T11:52:25;29.90;85.40
5061;DHT22;2549;52.128;21.068;2022-07-22T11:54:52;29.90;85.30
5061;DHT22;2549;52.128;21.068;2022-07-22T11:57:19;30.00;86.10
5061;DHT22;2549;52.128;21.068;2022-07-22T11:59:46;30.00;85.70
5061;DHT22;2549;52.128;21.068;2022-07-22T12:02:14;30.00;86.30
5061;DHT22;2549;52.128;21.068;2022-07-22T12:04:41;30.00;86.50
5061;DHT22;2549;52.128;21.068;2022-07-22T12:07:11;30.00;86.70
5061;DHT22;2549;52.128;21.068;2022-07-22T12:09:39;30.10;86.10
5061;DHT22;2549;52.128;21.068;2022-07-22T12:12:09;30.10;85.60
5061;DHT22;2549;52.128;21.068;2022-07-22T12:14:36;30.20;85.30
5061;DHT22;2549;52.128;21.068;2022-07-22T12:17:08;30.20;85.30
5061;DHT22;2549;52.128;21.068;2022-07-22T12:19:40;30.20;85.90
5061;DHT22;2549;52.128;21.068;2022-07-22T12:22:12;30.20;85.60
5061;DHT22;2549;52.128;21.068;2022-07-22T12:24:43;30.20;85.70
5061;DHT22;2549;52.128;21.068;2022-07-22T12:27:14;30.20;86.90
5061;DHT22;2549;52.128;21.068;2022-07-22T12:29:46;30.20;87.30
5061;DHT22;2549;52.128;21.068;2022-07-22T12:35:01;30.40;86.60
5061;DHT22;2549;52.128;21.068;2022-07-22T12:37:42;30.40;86.60
5061;DHT22;2549;52.128;21.068;2022-07-22T12:40:11;30.50;85.10
5061;DHT22;2549;52.128;21.068;2022-07-22T12:42:45;30.50;85.50
5061;DHT22;2549;52.128;21.068;2022-07-22T12:45:17;30.60;85.70
5061;DHT22;2549;52.128;21.068;2022-07-22T12:50:54;30.60;85.70
5061;DHT22;2549;52.128;21.068;2022-07-22T12:53:23;30.60;85.10
5061;DHT22;2549;52.128;21.068;2022-07-22T12:55:52;30.60;85.20
5061;DHT22;2549;52.128;21.068;2022-07-22T12:58:27;30.80;84.10
5061;DHT22;2549;52.128;21.068;2022-07-22T13:00:58;30.80;84.00
5061;DHT22;2549;52.128;21.068;2022-07-22T13:03:26;30.80;84.80
5061;DHT22;2549;52.128;21.068;2022-07-22T13:05:55;30.80;83.70
5061;DHT22;2549;52.128;21.068;2022-07-22T13:08:23;31.00;82.20
5061;DHT22;2549;52.128;21.068;2022-07-22T13:10:51;31.10;81.70
5061;DHT22;2549;52.128;21.068;2022-07-22T13:13:19;31.20;81.10
5061;DHT22;2549;52.128;21.068;2022-07-22T13:15:46;31.20;81.00
5061;DHT22;2549;52.128;21.068;2022-07-22T13:18:14;31.20;81.60
5061;DHT22;2549;52.128;21.068;2022-07-22T13:20:41;31.10;82.20
5061;DHT22;2549;52.128;21.068;2022-07-22T13:23:08;31.20;82.50
5061;DHT22;2549;52.128;21.068;2022-07-22T13:25:36;31.20;82.30
5061;DHT22;2549;52.128;21.068;2022-07-22T13:28:03;31.20;84.30
5061;DHT22;2549;52.128;21.068;2022-07-22T13:30:30;31.10;82.70
5061;DHT22;2549;52.128;21.068;2022-07-22T13:32:58;31.10;82.40
5061;DHT22;2549;52.128;21.068;2022-07-22T13:35:25;31.10;82.10
5061;DHT22;2549;52.128;21.068;2022-07-22T13:37:52;31.10;82.50
5061;DHT22;2549;52.128;21.068;2022-07-22T13:40:19;31.10;82.30
5061;DHT22;2549;52.128;21.068;2022-07-22T13:42:46;31.10;82.80
5061;DHT22;2549;52.128;21.068;2022-07-22T13:45:13;31.10;83.40
5061;DHT22;2549;52.128;21.068;2022-07-22T13:47:41;31.20;83.10
5061;DHT22;2549;52.128;21.068;2022-07-22T13:50:08;31.20;82.60
5061;DHT22;2549;52.128;21.068;2022-07-22T13:52:35;31.30;82.80
5061;DHT22;2549;52.128;21.068;2022-07-22T13:55:03;31.20;82.40
5061;DHT22;2549;52.128;21.068;2022-07-22T13:57:30;31.30;82.90
5061;DHT22;2549;52.128;21.068;2022-07-22T13:59:57;31.30;82.80
5061;DHT22;2549;52.128;21.068;2022-07-22T14:02:24;31.30;81.90
5061;DHT22;2549;52.128;21.068;2022-07-22T14:04:51;31.40;82.10
5061;DHT22;2549;52.128;21.068;2022-07-22T14:07:18;31.40;82.20
5061;DHT22;2549;52.128;21.068;2022-07-22T14:09:45;31.40;82.50
5061;DHT22;2549;52.128;21.068;2022-07-22T14:12:12;31.40;83.60
5061;DHT22;2549;52.128;21.068;2022-07-22T14:14:39;31.40;83.30
5061;DHT22;2549;52.128;21.068;2022-07-22T14:17:06;31.40;83.00
5061;DHT22;2549;52.128;21.068;2022-07-22T14:19:33;31.40;81.70
5061;DHT22;2549;52.128;21.068;2022-07-22T14:22:00;31.50;82.40
5061;DHT22;2549;52.128;21.068;2022-07-22T14:24:27;31.50;82.80
5061;DHT22;2549;52.128;21.068;2022-07-22T14:26:54;31.50;82.60
5061;DHT22;2549;52.128;21.068;2022-07-22T14:29:21;31.50;82.10
5061;DHT22;2549;52.128;21.068;2022-07-22T14:31:49;31.50;82.00
5061;DHT22;2549;52.128;21.068;2022-07-22T14:34:16;31.60;81.80
5061;DHT22;2549;52.128;21.068;2022-07-22T14:36:46;31.60;81.80
5061;DHT22;2549;52.128;21.068;2022-07-22T14:39:13;31.60;81.90
5061;DHT22;2549;52.128;21.068;2022-07-22T14:41:40;31.60;81.80
5061;DHT22;2549;52.128;21.068;2022-07-22T14:44:07;31.60;81.40
5061;DHT22;2549;52.128;21.068;2022-07-22T14:46:34;31.70;81.00
5061;DHT22;2549;52.128;21.068;2022-07-22T14:49:01;31.70;79.70
5061;DHT22;2549;52.128;21.068;2022-07-22T14:51:28;31.80;79.10
5061;DHT22;2549;52.128;21.068;2022-07-22T14:53:56;31.80;79.50
5061;DHT22;2549;52.128;21.068;2022-07-22T14:56:23;31.90;79.80
5061;DHT22;2549;52.128;21.068;2022-07-22T14:58:50;31.90;80.10
5061;DHT22;2549;52.128;21.068;2022-07-22T15:01:17;31.90;79.90
5061;DHT22;2549;52.128;21.068;2022-07-22T15:03:52;31.90;80.00
5061;DHT22;2549;52.128;21.068;2022-07-22T15:06:19;31.80;79.90
5061;DHT22;2549;52.128;21.068;2022-07-22T15:08:48;31.80;79.60
5061;DHT22;2549;52.128;21.068;2022-07-22T15:11:15;31.80;79.10
5061;DHT22;2549;52.128;21.068;2022-07-22T15:13:42;31.80;80.00
5061;DHT22;2549;52.128;21.068;2022-07-22T15:16:09;31.70;80.00
5061;DHT22;2549;52.128;21.068;2022-07-22T15:18:37;31.70;79.80
5061;DHT22;2549;52.128;21.068;2022-07-22T15:21:04;31.70;79.40
5061;DHT22;2549;52.128;21.068;2022-07-22T15:23:31;31.70;79.10
5061;DHT22;2549;52.128;21.068;2022-07-22T15:25:59;31.70;79.30
5061;DHT22;2549;52.128;21.068;2022-07-22T15:28:27;31.70;78.60
5061;DHT22;2549;52.128;21.068;2022-07-22T15:31:00;31.80;78.20
5061;DHT22;2549;52.128;21.068;2022-07-22T15:33:27;31.80;77.50
5061;DHT22;2549;52.128;21.068;2022-07-22T15:36:04;31.80;77.90
5061;DHT22;2549;52.128;21.068;2022-07-22T15:38:32;31.80;78.30
5061;DHT22;2549;52.128;21.068;2022-07-22T15:40:59;31.80;78.20
5061;DHT22;2549;52.128;21.068;2022-07-22T15:43:27;31.80;77.70
5061;DHT22;2549;52.128;21.068;2022-07-22T15:45:54;31.90;78.80
5061;DHT22;2549;52.128;21.068;2022-07-22T15:48:21;31.90;79.00
5061;DHT22;2549;52.128;21.068;2022-07-22T15:50:48;32.00;78.60
5061;DHT22;2549;52.128;21.068;2022-07-22T15:53:15;32.00;78.70
5061;DHT22;2549;52.128;21.068;2022-07-22T15:55:42;32.00;78.80
5061;DHT22;2549;52.128;21.068;2022-07-22T15:58:10;32.00;79.20
5061;DHT22;2549;52.128;21.068;2022-07-22T16:00:55;32.10;79.50
5061;DHT22;2549;52.128;21.068;2022-07-22T16:03:22;32.00;78.70
5061;DHT22;2549;52.128;21.068;2022-07-22T16:05:53;32.10;78.20
5061;DHT22;2549;52.128;21.068;2022-07-22T16:08:22;32.00;77.80
5061;DHT22;2549;52.128;21.068;2022-07-22T16:10:49;32.00;77.60
5061;DHT22;2549;52.128;21.068;2022-07-22T16:13:16;32.00;77.70